Forest City, Iowa
Current Conditions -  °F | °C
As of 4:55 PM on Tuesday 27 Jan 2015 (Local Time) from KFXY Reporting Station
Overcast Overcast  
Wind Chill: 27°   Ceiling: 1500
Heat Index: 34°   Visibility: 10mi
Dew Point: 30°   Wind: 8mph
Humidity: 87%   Direction: 140°SE
Pressure: 30.13"   Gusts: NA
Location:  43.26°N, 93.64°W
Report Text: KFXY 272255Z AUTO 14007KT 10SM OVC015 01/M01 A3013 RMK AO2
Loading
Personal Weather Stations






























Interactive Weather Map New forecast layout! Learn more

10-Day Weather Forecast

Advertisements
Track Severe Weather on mobile